sensor_id;sensor_type;location;lat;lon;timestamp;P1;durP1;ratioP1;P2;durP2;ratioP2
60257;SDS011;46115;44.484;11.314;2024-03-23T00:52:48;6.82;;;5.22;;
60257;SDS011;46115;44.484;11.314;2024-03-23T00:56:50;7.05;;;5.53;;
60257;SDS011;46115;44.484;11.314;2024-03-23T01:00:53;8.93;;;4.95;;
60257;SDS011;46115;44.484;11.314;2024-03-23T01:04:54;5.95;;;5.15;;
60257;SDS011;46115;44.484;11.314;2024-03-23T01:08:58;6.10;;;5.40;;
60257;SDS011;46115;44.484;11.314;2024-03-23T01:13:00;7.97;;;5.38;;
60257;SDS011;46115;44.484;11.314;2024-03-23T01:17:03;7.93;;;5.20;;
60257;SDS011;46115;44.484;11.314;2024-03-23T01:21:05;7.15;;;4.88;;
60257;SDS011;46115;44.484;11.314;2024-03-23T01:25:09;6.40;;;5.05;;
60257;SDS011;46115;44.484;11.314;2024-03-23T01:29:11;7.38;;;4.70;;
60257;SDS011;46115;44.484;11.314;2024-03-23T01:33:13;6.78;;;5.10;;
60257;SDS011;46115;44.484;11.314;2024-03-23T01:37:16;7.50;;;5.03;;
60257;SDS011;46115;44.484;11.314;2024-03-23T01:41:20;6.13;;;4.82;;
60257;SDS011;46115;44.484;11.314;2024-03-23T01:45:23;6.05;;;5.00;;
60257;SDS011;46115;44.484;11.314;2024-03-23T01:49:25;6.60;;;4.80;;
60257;SDS011;46115;44.484;11.314;2024-03-23T01:57:31;7.90;;;5.10;;
60257;SDS011;46115;44.484;11.314;2024-03-23T02:01:34;7.88;;;5.00;;
60257;SDS011;46115;44.484;11.314;2024-03-23T02:05:37;7.43;;;4.95;;
60257;SDS011;46115;44.484;11.314;2024-03-23T02:09:40;6.97;;;4.90;;
60257;SDS011;46115;44.484;11.314;2024-03-23T02:13:43;7.35;;;4.60;;
60257;SDS011;46115;44.484;11.314;2024-03-23T02:17:46;8.18;;;4.72;;
60257;SDS011;46115;44.484;11.314;2024-03-23T02:21:48;5.72;;;4.80;;
60257;SDS011;46115;44.484;11.314;2024-03-23T02:29:54;7.20;;;4.75;;
60257;SDS011;46115;44.484;11.314;2024-03-23T02:33:57;12.35;;;4.90;;
60257;SDS011;46115;44.484;11.314;2024-03-23T02:37:59;7.50;;;4.72;;
60257;SDS011;46115;44.484;11.314;2024-03-23T02:42:04;6.65;;;4.80;;
60257;SDS011;46115;44.484;11.314;2024-03-23T02:46:06;8.35;;;5.20;;
60257;SDS011;46115;44.484;11.314;2024-03-23T02:50:09;7.40;;;4.90;;
60257;SDS011;46115;44.484;11.314;2024-03-23T02:54:11;6.82;;;4.90;;
60257;SDS011;46115;44.484;11.314;2024-03-23T02:58:15;5.80;;;4.80;;
60257;SDS011;46115;44.484;11.314;2024-03-23T03:02:17;8.18;;;5.13;;
60257;SDS011;46115;44.484;11.314;2024-03-23T03:06:23;6.93;;;5.30;;
60257;SDS011;46115;44.484;11.314;2024-03-23T03:10:25;7.00;;;5.00;;
60257;SDS011;46115;44.484;11.314;2024-03-23T03:14:29;7.20;;;5.25;;
60257;SDS011;46115;44.484;11.314;2024-03-23T03:18:31;7.80;;;5.05;;
60257;SDS011;46115;44.484;11.314;2024-03-23T03:22:33;7.57;;;5.22;;
60257;SDS011;46115;44.484;11.314;2024-03-23T03:26:36;6.53;;;5.20;;
60257;SDS011;46115;44.484;11.314;2024-03-23T03:30:40;9.93;;;5.20;;
60257;SDS011;46115;44.484;11.314;2024-03-23T03:34:42;8.27;;;5.40;;
60257;SDS011;46115;44.484;11.314;2024-03-23T03:42:46;6.55;;;5.40;;
60257;SDS011;46115;44.484;11.314;2024-03-23T03:46:51;7.00;;;5.28;;
60257;SDS011;46115;44.484;11.314;2024-03-23T03:50:53;7.50;;;5.10;;
60257;SDS011;46115;44.484;11.314;2024-03-23T03:55:01;7.45;;;5.10;;
60257;SDS011;46115;44.484;11.314;2024-03-23T03:59:04;6.05;;;5.43;;
60257;SDS011;46115;44.484;11.314;2024-03-23T04:03:08;7.15;;;5.45;;
60257;SDS011;46115;44.484;11.314;2024-03-23T04:07:11;7.60;;;5.30;;
60257;SDS011;46115;44.484;11.314;2024-03-23T04:11:13;7.07;;;5.40;;
60257;SDS011;46115;44.484;11.314;2024-03-23T04:15:16;7.15;;;5.28;;
60257;SDS011;46115;44.484;11.314;2024-03-23T04:19:20;10.18;;;5.80;;
60257;SDS011;46115;44.484;11.314;2024-03-23T04:23:22;7.32;;;5.50;;
60257;SDS011;46115;44.484;11.314;2024-03-23T04:27:25;8.05;;;5.60;;
60257;SDS011;46115;44.484;11.314;2024-03-23T04:31:27;6.35;;;5.15;;
60257;SDS011;46115;44.484;11.314;2024-03-23T04:39:33;7.72;;;5.55;;
60257;SDS011;46115;44.484;11.314;2024-03-23T04:43:35;6.80;;;5.72;;
60257;SDS011;46115;44.484;11.314;2024-03-23T04:47:38;7.82;;;6.03;;
60257;SDS011;46115;44.484;11.314;2024-03-23T04:51:42;7.65;;;5.80;;
60257;SDS011;46115;44.484;11.314;2024-03-23T04:55:46;7.70;;;5.60;;
60257;SDS011;46115;44.484;11.314;2024-03-23T05:03:51;7.63;;;6.00;;
60257;SDS011;46115;44.484;11.314;2024-03-23T05:07:55;7.43;;;5.32;;
60257;SDS011;46115;44.484;11.314;2024-03-23T05:11:57;6.45;;;5.20;;
60257;SDS011;46115;44.484;11.314;2024-03-23T05:16:00;8.85;;;5.70;;
60257;SDS011;46115;44.484;11.314;2024-03-23T05:20:02;6.65;;;5.40;;
60257;SDS011;46115;44.484;11.314;2024-03-23T05:24:07;7.93;;;5.60;;
60257;SDS011;46115;44.484;11.314;2024-03-23T05:28:09;7.93;;;5.50;;
60257;SDS011;46115;44.484;11.314;2024-03-23T05:36:14;7.32;;;5.60;;
60257;SDS011;46115;44.484;11.314;2024-03-23T05:44:20;7.30;;;5.38;;
60257;SDS011;46115;44.484;11.314;2024-03-23T05:52:24;9.05;;;4.93;;
60257;SDS011;46115;44.484;11.314;2024-03-23T05:56:29;6.32;;;4.72;;
60257;SDS011;46115;44.484;11.314;2024-03-23T06:00:31;7.20;;;4.35;;
60257;SDS011;46115;44.484;11.314;2024-03-23T06:04:34;7.05;;;4.70;;
60257;SDS011;46115;44.484;11.314;2024-03-23T06:08:36;6.32;;;4.93;;
60257;SDS011;46115;44.484;11.314;2024-03-23T06:12:40;6.25;;;4.90;;
60257;SDS011;46115;44.484;11.314;2024-03-23T06:16:43;6.85;;;4.75;;
60257;SDS011;46115;44.484;11.314;2024-03-23T06:20:45;6.07;;;4.63;;
60257;SDS011;46115;44.484;11.314;2024-03-23T06:24:47;6.20;;;4.38;;
60257;SDS011;46115;44.484;11.314;2024-03-23T06:28:51;6.55;;;4.78;;
60257;SDS011;46115;44.484;11.314;2024-03-23T06:32:54;8.73;;;4.60;;
60257;SDS011;46115;44.484;11.314;2024-03-23T06:36:56;5.35;;;4.00;;
60257;SDS011;46115;44.484;11.314;2024-03-23T06:40:57;6.87;;;3.90;;
60257;SDS011;46115;44.484;11.314;2024-03-23T06:45:01;5.07;;;3.80;;
60257;SDS011;46115;44.484;11.314;2024-03-23T06:49:05;6.50;;;4.00;;
60257;SDS011;46115;44.484;11.314;2024-03-23T06:53:07;4.30;;;3.38;;
60257;SDS011;46115;44.484;11.314;2024-03-23T06:57:10;8.45;;;3.63;;
60257;SDS011;46115;44.484;11.314;2024-03-23T07:01:14;3.85;;;3.25;;
60257;SDS011;46115;44.484;11.314;2024-03-23T07:05:16;4.38;;;3.20;;
60257;SDS011;46115;44.484;11.314;2024-03-23T07:09:19;4.03;;;3.30;;
60257;SDS011;46115;44.484;11.314;2024-03-23T07:13:25;5.70;;;3.38;;
60257;SDS011;46115;44.484;11.314;2024-03-23T07:17:29;5.93;;;3.33;;
60257;SDS011;46115;44.484;11.314;2024-03-23T07:21:33;4.72;;;3.33;;
60257;SDS011;46115;44.484;11.314;2024-03-23T07:25:35;5.32;;;3.30;;
60257;SDS011;46115;44.484;11.314;2024-03-23T07:29:38;4.72;;;3.40;;
60257;SDS011;46115;44.484;11.314;2024-03-23T07:33:42;4.40;;;3.25;;
60257;SDS011;46115;44.484;11.314;2024-03-23T07:37:46;4.93;;;3.40;;
60257;SDS011;46115;44.484;11.314;2024-03-23T07:41:48;4.47;;;3.45;;
60257;SDS011;46115;44.484;11.314;2024-03-23T07:45:51;3.55;;;3.10;;
60257;SDS011;46115;44.484;11.314;2024-03-23T07:49:56;5.20;;;3.30;;
60257;SDS011;46115;44.484;11.314;2024-03-23T07:53:58;4.88;;;3.00;;
60257;SDS011;46115;44.484;11.314;2024-03-23T07:58:01;5.13;;;3.75;;
60257;SDS011;46115;44.484;11.314;2024-03-23T08:02:03;4.55;;;3.47;;
60257;SDS011;46115;44.484;11.314;2024-03-23T08:06:07;3.88;;;3.30;;
60257;SDS011;46115;44.484;11.314;2024-03-23T08:10:11;5.20;;;3.10;;
60257;SDS011;46115;44.484;11.314;2024-03-23T08:14:13;5.75;;;3.33;;
60257;SDS011;46115;44.484;11.314;2024-03-23T08:18:16;4.85;;;3.28;;
60257;SDS011;46115;44.484;11.314;2024-03-23T08:22:19;4.72;;;3.50;;
60257;SDS011;46115;44.484;11.314;2024-03-23T08:26:22;5.80;;;3.42;;
60257;SDS011;46115;44.484;11.314;2024-03-23T08:30:25;4.00;;;2.97;;
60257;SDS011;46115;44.484;11.314;2024-03-23T08:34:27;4.13;;;3.30;;
60257;SDS011;46115;44.484;11.314;2024-03-23T08:38:30;5.25;;;3.28;;
60257;SDS011;46115;44.484;11.314;2024-03-23T08:42:33;3.83;;;3.20;;
60257;SDS011;46115;44.484;11.314;2024-03-23T08:46:35;3.95;;;3.00;;
60257;SDS011;46115;44.484;11.314;2024-03-23T08:50:38;3.83;;;3.35;;
60257;SDS011;46115;44.484;11.314;2024-03-23T08:54:41;4.90;;;3.10;;
60257;SDS011;46115;44.484;11.314;2024-03-23T08:58:44;4.47;;;3.20;;
60257;SDS011;46115;44.484;11.314;2024-03-23T09:02:47;4.55;;;2.88;;
60257;SDS011;46115;44.484;11.314;2024-03-23T09:06:49;4.13;;;3.15;;
60257;SDS011;46115;44.484;11.314;2024-03-23T09:10:54;4.53;;;3.33;;
60257;SDS011;46115;44.484;11.314;2024-03-23T09:14:56;4.15;;;3.38;;
60257;SDS011;46115;44.484;11.314;2024-03-23T09:18:58;3.25;;;2.95;;
60257;SDS011;46115;44.484;11.314;2024-03-23T09:23:01;5.57;;;3.35;;
60257;SDS011;46115;44.484;11.314;2024-03-23T09:27:05;4.28;;;2.88;;
60257;SDS011;46115;44.484;11.314;2024-03-23T09:31:08;4.60;;;3.30;;
60257;SDS011;46115;44.484;11.314;2024-03-23T09:35:12;4.78;;;2.88;;
60257;SDS011;46115;44.484;11.314;2024-03-23T09:39:14;4.57;;;3.30;;
60257;SDS011;46115;44.484;11.314;2024-03-23T09:43:18;4.65;;;3.50;;
60257;SDS011;46115;44.484;11.314;2024-03-23T09:47:21;5.72;;;3.40;;
60257;SDS011;46115;44.484;11.314;2024-03-23T09:51:23;4.25;;;3.15;;
60257;SDS011;46115;44.484;11.314;2024-03-23T09:55:25;4.07;;;3.08;;
60257;SDS011;46115;44.484;11.314;2024-03-23T09:59:30;8.38;;;3.28;;
60257;SDS011;46115;44.484;11.314;2024-03-23T10:03:41;4.15;;;2.70;;
60257;SDS011;46115;44.484;11.314;2024-03-23T10:07:43;3.03;;;2.72;;
60257;SDS011;46115;44.484;11.314;2024-03-23T10:11:46;6.43;;;2.83;;
60257;SDS011;46115;44.484;11.314;2024-03-23T10:15:55;6.10;;;2.97;;
60257;SDS011;46115;44.484;11.314;2024-03-23T10:19:59;5.35;;;2.97;;
60257;SDS011;46115;44.484;11.314;2024-03-23T10:24:07;3.75;;;2.75;;
60257;SDS011;46115;44.484;11.314;2024-03-23T10:28:10;5.25;;;3.05;;
60257;SDS011;46115;44.484;11.314;2024-03-23T10:32:15;4.30;;;3.05;;
60257;SDS011;46115;44.484;11.314;2024-03-23T10:36:20;6.80;;;3.25;;
60257;SDS011;46115;44.484;11.314;2024-03-23T10:40:23;4.65;;;3.10;;
60257;SDS011;46115;44.484;11.314;2024-03-23T10:44:26;4.97;;;2.92;;
60257;SDS011;46115;44.484;11.314;2024-03-23T10:48:33;5.25;;;3.45;;
60257;SDS011;46115;44.484;11.314;2024-03-23T10:52:35;4.13;;;2.90;;
60257;SDS011;46115;44.484;11.314;2024-03-23T10:56:38;5.93;;;3.30;;
60257;SDS011;46115;44.484;11.314;2024-03-23T11:00:41;5.93;;;3.50;;
60257;SDS011;46115;44.484;11.314;2024-03-23T11:04:45;4.32;;;3.40;;
60257;SDS011;46115;44.484;11.314;2024-03-23T11:08:49;6.35;;;3.28;;
60257;SDS011;46115;44.484;11.314;2024-03-23T11:12:51;3.60;;;3.17;;
60257;SDS011;46115;44.484;11.314;2024-03-23T11:17:07;5.07;;;3.40;;
60257;SDS011;46115;44.484;11.314;2024-03-23T11:21:12;6.53;;;3.50;;
60257;SDS011;46115;44.484;11.314;2024-03-23T11:25:53;5.35;;;3.47;;
60257;SDS011;46115;44.484;11.314;2024-03-23T11:30:08;5.13;;;3.45;;
60257;SDS011;46115;44.484;11.314;2024-03-23T11:34:12;6.65;;;3.35;;
60257;SDS011;46115;44.484;11.314;2024-03-23T11:38:18;6.85;;;3.60;;
60257;SDS011;46115;44.484;11.314;2024-03-23T11:42:20;7.03;;;3.60;;
60257;SDS011;46115;44.484;11.314;2024-03-23T11:46:22;6.30;;;3.28;;
60257;SDS011;46115;44.484;11.314;2024-03-23T11:50:25;5.05;;;3.50;;
60257;SDS011;46115;44.484;11.314;2024-03-23T11:54:29;8.77;;;3.20;;
60257;SDS011;46115;44.484;11.314;2024-03-23T11:58:31;8.18;;;3.40;;
60257;SDS011;46115;44.484;11.314;2024-03-23T12:02:34;7.20;;;3.50;;
60257;SDS011;46115;44.484;11.314;2024-03-23T12:06:36;5.20;;;3.72;;
60257;SDS011;46115;44.484;11.314;2024-03-23T12:10:40;5.88;;;3.80;;
60257;SDS011;46115;44.484;11.314;2024-03-23T12:14:42;5.60;;;3.80;;
60257;SDS011;46115;44.484;11.314;2024-03-23T12:18:45;5.20;;;3.83;;
60257;SDS011;46115;44.484;11.314;2024-03-23T12:22:49;5.85;;;3.55;;
60257;SDS011;46115;44.484;11.314;2024-03-23T12:26:53;6.93;;;3.88;;
60257;SDS011;46115;44.484;11.314;2024-03-23T12:30:54;6.78;;;3.67;;
60257;SDS011;46115;44.484;11.314;2024-03-23T12:34:57;7.10;;;3.58;;
60257;SDS011;46115;44.484;11.314;2024-03-23T12:38:59;4.40;;;3.28;;
60257;SDS011;46115;44.484;11.314;2024-03-23T12:43:03;4.85;;;3.67;;
60257;SDS011;46115;44.484;11.314;2024-03-23T12:47:06;6.72;;;3.25;;
60257;SDS011;46115;44.484;11.314;2024-03-23T12:51:07;5.00;;;3.00;;
60257;SDS011;46115;44.484;11.314;2024-03-23T12:55:09;5.13;;;3.05;;
60257;SDS011;46115;44.484;11.314;2024-03-23T12:59:13;9.15;;;2.88;;
60257;SDS011;46115;44.484;11.314;2024-03-23T13:03:17;4.82;;;2.80;;
60257;SDS011;46115;44.484;11.314;2024-03-23T13:07:20;3.90;;;2.80;;
60257;SDS011;46115;44.484;11.314;2024-03-23T13:11:23;6.57;;;2.70;;
60257;SDS011;46115;44.484;11.314;2024-03-23T13:15:26;5.75;;;2.78;;
60257;SDS011;46115;44.484;11.314;2024-03-23T13:19:29;6.45;;;2.80;;
60257;SDS011;46115;44.484;11.314;2024-03-23T13:23:32;4.90;;;2.50;;
60257;SDS011;46115;44.484;11.314;2024-03-23T13:27:36;3.30;;;2.10;;
60257;SDS011;46115;44.484;11.314;2024-03-23T13:31:40;5.65;;;2.40;;
60257;SDS011;46115;44.484;11.314;2024-03-23T13:35:48;5.20;;;2.10;;
60257;SDS011;46115;44.484;11.314;2024-03-23T13:39:51;5.38;;;1.88;;
60257;SDS011;46115;44.484;11.314;2024-03-23T13:43:53;4.82;;;2.10;;
60257;SDS011;46115;44.484;11.314;2024-03-23T13:47:57;3.47;;;2.05;;
60257;SDS011;46115;44.484;11.314;2024-03-23T13:51:59;4.35;;;1.95;;
60257;SDS011;46115;44.484;11.314;2024-03-23T13:56:02;5.97;;;2.30;;
60257;SDS011;46115;44.484;11.314;2024-03-23T14:04:15;3.03;;;2.03;;
60257;SDS011;46115;44.484;11.314;2024-03-23T14:08:17;3.60;;;2.17;;
60257;SDS011;46115;44.484;11.314;2024-03-23T14:12:21;5.50;;;2.17;;
60257;SDS011;46115;44.484;11.314;2024-03-23T14:16:24;4.47;;;2.10;;
60257;SDS011;46115;44.484;11.314;2024-03-23T14:20:28;5.85;;;2.25;;
60257;SDS011;46115;44.484;11.314;2024-03-23T14:24:32;6.93;;;2.50;;
60257;SDS011;46115;44.484;11.314;2024-03-23T14:28:35;7.22;;;2.13;;
60257;SDS011;46115;44.484;11.314;2024-03-23T14:32:37;6.82;;;1.98;;
60257;SDS011;46115;44.484;11.314;2024-03-23T14:36:41;6.30;;;2.00;;
60257;SDS011;46115;44.484;11.314;2024-03-23T14:40:43;4.85;;;2.10;;
60257;SDS011;46115;44.484;11.314;2024-03-23T14:44:45;4.60;;;2.00;;
60257;SDS011;46115;44.484;11.314;2024-03-23T14:48:47;7.05;;;2.00;;
60257;SDS011;46115;44.484;11.314;2024-03-23T14:52:51;7.10;;;1.80;;
60257;SDS011;46115;44.484;11.314;2024-03-23T14:56:53;3.58;;;1.80;;
60257;SDS011;46115;44.484;11.314;2024-03-23T15:01:00;6.65;;;1.90;;
60257;SDS011;46115;44.484;11.314;2024-03-23T15:05:03;3.58;;;1.83;;
60257;SDS011;46115;44.484;11.314;2024-03-23T15:09:11;5.32;;;2.00;;
60257;SDS011;46115;44.484;11.314;2024-03-23T15:13:14;8.18;;;2.30;;
60257;SDS011;46115;44.484;11.314;2024-03-23T15:17:17;8.50;;;2.13;;
60257;SDS011;46115;44.484;11.314;2024-03-23T15:21:19;5.97;;;2.30;;
60257;SDS011;46115;44.484;11.314;2024-03-23T15:25:23;7.20;;;2.40;;
60257;SDS011;46115;44.484;11.314;2024-03-23T15:29:26;7.75;;;2.50;;
60257;SDS011;46115;44.484;11.314;2024-03-23T15:33:28;9.23;;;2.63;;
60257;SDS011;46115;44.484;11.314;2024-03-23T15:37:31;7.07;;;2.70;;
60257;SDS011;46115;44.484;11.314;2024-03-23T15:41:36;6.63;;;2.53;;
60257;SDS011;46115;44.484;11.314;2024-03-23T15:45:38;7.07;;;2.40;;
60257;SDS011;46115;44.484;11.314;2024-03-23T15:49:40;5.80;;;2.40;;
60257;SDS011;46115;44.484;11.314;2024-03-23T15:53:44;10.63;;;2.45;;
60257;SDS011;46115;44.484;11.314;2024-03-23T15:57:47;5.30;;;2.35;;
60257;SDS011;46115;44.484;11.314;2024-03-23T16:01:50;7.35;;;2.45;;
60257;SDS011;46115;44.484;11.314;2024-03-23T16:05:52;8.20;;;2.40;;
60257;SDS011;46115;44.484;11.314;2024-03-23T16:09:55;7.63;;;2.65;;
60257;SDS011;46115;44.484;11.314;2024-03-23T16:14:01;7.32;;;2.50;;
60257;SDS011;46115;44.484;11.314;2024-03-23T16:18:04;6.30;;;2.45;;
60257;SDS011;46115;44.484;11.314;2024-03-23T16:26:07;11.38;;;2.40;;
60257;SDS011;46115;44.484;11.314;2024-03-23T16:30:13;7.82;;;2.78;;
60257;SDS011;46115;44.484;11.314;2024-03-23T16:34:16;7.80;;;2.40;;
60257;SDS011;46115;44.484;11.314;2024-03-23T16:38:18;12.15;;;3.08;;
60257;SDS011;46115;44.484;11.314;2024-03-23T16:42:21;8.30;;;2.58;;
60257;SDS011;46115;44.484;11.314;2024-03-23T16:46:25;8.98;;;2.80;;
60257;SDS011;46115;44.484;11.314;2024-03-23T16:50:27;11.48;;;3.40;;
60257;SDS011;46115;44.484;11.314;2024-03-23T16:54:29;19.45;;;4.20;;
60257;SDS011;46115;44.484;11.314;2024-03-23T16:58:32;7.55;;;2.83;;
60257;SDS011;46115;44.484;11.314;2024-03-23T17:02:37;8.18;;;2.72;;
60257;SDS011;46115;44.484;11.314;2024-03-23T17:06:40;7.20;;;2.80;;
60257;SDS011;46115;44.484;11.314;2024-03-23T17:10:43;11.35;;;2.90;;
60257;SDS011;46115;44.484;11.314;2024-03-23T17:14:45;9.65;;;3.00;;
60257;SDS011;46115;44.484;11.314;2024-03-23T17:18:48;7.43;;;2.70;;
60257;SDS011;46115;44.484;11.314;2024-03-23T17:22:53;6.72;;;2.70;;
60257;SDS011;46115;44.484;11.314;2024-03-23T17:26:56;7.93;;;2.92;;
60257;SDS011;46115;44.484;11.314;2024-03-23T17:30:58;5.95;;;2.60;;
60257;SDS011;46115;44.484;11.314;2024-03-23T17:35:02;7.43;;;2.60;;
60257;SDS011;46115;44.484;11.314;2024-03-23T17:39:06;6.28;;;2.95;;
60257;SDS011;46115;44.484;11.314;2024-03-23T17:43:10;9.23;;;3.00;;
60257;SDS011;46115;44.484;11.314;2024-03-23T17:47:12;9.57;;;2.70;;
60257;SDS011;46115;44.484;11.314;2024-03-23T17:51:17;5.55;;;2.22;;
60257;SDS011;46115;44.484;11.314;2024-03-23T17:55:19;5.47;;;2.50;;
60257;SDS011;46115;44.484;11.314;2024-03-23T17:59:22;5.05;;;2.40;;
60257;SDS011;46115;44.484;11.314;2024-03-23T18:03:24;6.22;;;2.80;;
60257;SDS011;46115;44.484;11.314;2024-03-23T23:06:09;8.07;;;3.08;;
60257;SDS011;46115;44.484;11.314;2024-03-23T23:10:12;13.85;;;3.13;;
60257;SDS011;46115;44.484;11.314;2024-03-23T23:14:13;12.73;;;3.07;;
60257;SDS011;46115;44.484;11.314;2024-03-23T23:18:16;8.10;;;3.08;;
60257;SDS011;46115;44.484;11.314;2024-03-23T23:22:20;11.07;;;3.25;;
60257;SDS011;46115;44.484;11.314;2024-03-23T23:26:21;10.07;;;3.28;;
60257;SDS011;46115;44.484;11.314;2024-03-23T23:30:23;10.25;;;3.22;;
60257;SDS011;46115;44.484;11.314;2024-03-23T23:34:26;11.25;;;3.00;;
60257;SDS011;46115;44.484;11.314;2024-03-23T23:38:29;10.25;;;3.08;;
60257;SDS011;46115;44.484;11.314;2024-03-23T23:42:32;11.23;;;3.20;;
60257;SDS011;46115;44.484;11.314;2024-03-23T23:46:34;11.30;;;3.10;;
60257;SDS011;46115;44.484;11.314;2024-03-23T23:50:37;10.90;;;2.85;;
60257;SDS011;46115;44.484;11.314;2024-03-23T23:54:40;8.13;;;2.90;;
60257;SDS011;46115;44.484;11.314;2024-03-23T23:58:43;14.07;;;3.70;;
